Página principal
METAR-TAF:

METAR-TAF

Aeroportos :

Fort Worth, Texas, Estados Unidos

latitude: 32-58-24N, longitude: 097-19-05W, altura: 220 m

Observação actual do tempo

O boletim foi feito há 59 minutos, às 18:53 UTC
Vento 13 kt de nor-noroeste com rajadas de 18 kt
Temperatura 20°C
Humidade 49%
Pressão 1023 hPa
Visibilidade: 16.1 km
Poucas nuvensa uma altura de 25000 ft

METAR: KAFW 251853Z 33013G18KT 10SM FEW250 20/09 A3022 RMK AO2 SLP229 T02000094

Hora: 14:52 (19:52 UTC)

Previsão

O boletim foi feito há 2 horas e 28 minutos, às 17:24 UTC
Previsão válida de 25 às 18 UTC a 26 às 18 UTC
Vento 13 kt de norte
Visibilidade: 10 km
Céu limpo
A partir de 26 às 0100 UTC
Vento 7 kt de nor-nordeste
Visibilidade: 10 km
Céu limpo

TAF: KAFW 251724Z 2518/2618 36013KT P6SM SKC FM260100 03007KT P6SM SKC

Observações e previsões do tempo de mais de 4000 aeroportos (mensagens METAR e TAF).

As estações disponíveis são os pontos amarelos e vermelhos sobre o mapa.

Mova o rato sobre o mapa para ver o nome da estação.

Depois clique no ponto para visualizar as observações e previsões meteorológicas.

Para alterar o mapa : clique nos botões verdes com uma cruz preta para aumentar o zoom; no botão verde com uma pitada de zoom; ou nas setas verdes para mapas adjacentes.


METAR-TAF: